createdAt,value
2022-08-17T00:10:03.761Z,66.13
2022-08-17T00:31:49.708Z,49.58
2022-08-17T00:53:39.540Z,53.84
2022-08-17T01:15:25.819Z,62.69
2022-08-17T01:37:12.279Z,51.63
2022-08-17T01:58:58.721Z,56.05
2022-08-17T02:20:44.913Z,66.95
2022-08-17T02:42:34.753Z,51.49
2022-08-17T03:04:20.617Z,55.74
2022-08-17T03:26:12.288Z,66.63
2022-08-17T03:48:18.909Z,51.94
2022-08-17T04:10:05.182Z,62.83
2022-08-17T04:31:51.267Z,51.27
2022-08-17T04:53:37.510Z,55.69
2022-08-17T05:15:23.465Z,64.59
2022-08-17T05:37:09.253Z,50.39
2022-08-17T05:59:06.063Z,53.77
2022-08-17T06:20:59.939Z,56.52
2022-08-17T06:43:02.548Z,57.71
2022-08-17T07:04:52.732Z,57.67
2022-08-17T07:26:39.641Z,56.45
2022-08-17T07:48:28.032Z,55.28
2022-08-17T08:10:17.077Z,49.72
2022-08-17T08:32:09.148Z,32.84
2022-08-17T08:54:03.584Z,23.60
2022-08-17T09:15:56.075Z,19.28
2022-08-17T09:37:52.566Z,17.89
2022-08-17T09:59:56.673Z,22.18
2022-08-17T10:22:14.494Z,24.88
2022-08-17T10:44:40.358Z,23.50
2022-08-17T11:06:21.593Z,20.99
2022-08-17T11:28:18.660Z,19.03
2022-08-17T11:50:55.401Z,20.51
2022-08-17T12:12:44.339Z,18.34
2022-08-17T12:34:36.298Z,16.83
2022-08-17T12:56:22.333Z,16.09
2022-08-17T13:18:30.464Z,17.02
2022-08-17T13:40:37.721Z,19.60
2022-08-17T14:02:27.653Z,21.75
2022-08-17T14:24:22.293Z,22.41
2022-08-17T14:46:08.415Z,23.57
2022-08-17T15:07:56.022Z,24.28
2022-08-17T15:29:41.774Z,25.36
2022-08-17T15:51:29.842Z,26.22
2022-08-17T16:13:17.371Z,27.22
2022-08-17T16:35:06.500Z,27.75
2022-08-17T16:56:52.238Z,30.28
2022-08-17T17:18:43.820Z,32.81
2022-08-17T17:40:41.423Z,34.26
2022-08-17T18:02:52.100Z,35.72
2022-08-17T18:24:42.810Z,39.57
2022-08-17T18:46:37.621Z,38.78
2022-08-17T19:08:36.263Z,41.14
2022-08-17T19:30:22.481Z,42.91
2022-08-17T19:52:27.144Z,44.88
2022-08-17T20:14:18.595Z,46.47
2022-08-17T20:36:15.646Z,48.19
2022-08-17T20:58:00.468Z,49.08
2022-08-17T21:20:11.092Z,49.02
2022-08-17T21:41:59.376Z,49.29
2022-08-17T22:03:46.274Z,50.01
2022-08-17T22:25:33.217Z,51.05
2022-08-17T22:47:43.019Z,52.40
2022-08-17T23:09:30.143Z,53.83
2022-08-17T23:31:20.153Z,55.41
2022-08-17T23:53:11.665Z,57.00
